Time;durP1;ratioP1;P1;durP2;ratioP2;P2;SDS_P1;SDS_P2;PMS_P1;PMS_P2;Temp;Humidity;BMP_temperature;BMP_pressure;BME280_temperature;BME280_humidity;BME280_pressure;Samples;Min_cycle;Max_cycle;Signal;HPM_P1;HPM_P2
2022/10/22 00:00:35;;;;;;;2.30;1.88;;;;;;;3.73;75.09;97393.38;5113255;28;20043;-61
2022/10/22 00:03:04;;;;;;;5.80;2.13;;;;;;;3.74;74.91;97390.81;5113189;28;20497;-63
2022/10/22 00:05:31;;;;;;;1.92;1.70;;;;;;;3.74;74.58;97387.34;5113287;28;20108;-61
2022/10/22 00:07:58;;;;;;;3.08;2.10;;;;;;;3.71;74.63;97387.34;5112996;28;20054;-63
2022/10/22 00:10:25;;;;;;;3.20;2.13;;;;;;;3.72;75.03;97395.09;5113175;28;20511;-62
2022/10/22 00:12:52;;;;;;;3.38;2.00;;;;;;;3.73;74.67;97385.63;5113434;28;20044;-60
2022/10/22 00:15:19;;;;;;;4.47;1.70;;;;;;;3.71;75.03;97382.16;5113461;28;20451;-64
2022/10/22 00:17:48;;;;;;;5.82;2.10;;;;;;;3.69;74.19;97374.38;5113020;28;20094;-66
2022/10/22 00:20:17;;;;;;;2.97;2.10;;;;;;;3.66;74.50;97376.97;5112982;28;20051;-64
2022/10/22 00:22:45;;;;;;;4.22;1.70;;;;;;;3.65;74.26;97368.31;5113065;28;20508;-67
2022/10/22 00:25:12;;;;;;;2.67;1.85;;;;;;;3.57;75.37;97375.22;5114500;28;20473;-63
2022/10/22 00:27:39;;;;;;;6.10;1.67;;;;;;;3.56;74.50;97368.31;5116824;28;20051;-63
2022/10/22 00:30:07;;;;;;;2.35;1.60;;;;;;;3.53;74.75;97365.72;5116815;28;20078;-63
2022/10/22 00:32:34;;;;;;;2.55;1.52;;;;;;;3.54;75.10;97368.31;5116711;28;20131;-63
2022/10/22 00:35:01;;;;;;;1.98;1.63;;;;;;;3.56;74.49;97370.91;5116647;28;20039;-63
2022/10/22 00:37:30;;;;;;;6.05;1.75;;;;;;;3.50;75.00;97369.16;5116651;28;20132;-64
2022/10/22 00:39:57;;;;;;;5.32;1.83;;;;;;;3.51;74.87;97363.13;5116696;28;20056;-65
2022/10/22 00:42:28;;;;;;;3.92;2.13;;;;;;;3.54;75.07;97367.44;5116641;28;20129;-66
2022/10/22 00:45:03;;;;;;;2.42;1.58;;;;;;;3.54;74.49;97364.84;5116544;28;20393;-65
2022/10/22 00:47:35;;;;;;;2.25;1.90;;;;;;;3.50;74.17;97363.13;5116396;28;20059;-63
2022/10/22 00:50:05;;;;;;;4.00;1.83;;;;;;;3.49;74.52;97359.66;5116410;28;20050;-63
2022/10/22 00:52:34;;;;;;;5.88;2.20;;;;;;;3.41;73.81;97354.44;5116415;28;20089;-63
2022/10/22 00:55:01;;;;;;;2.70;1.88;;;;;;;3.33;74.18;97352.69;5116394;28;20581;-61
2022/10/22 00:57:29;;;;;;;2.58;1.58;;;;;;;3.29;74.66;97350.09;5116335;28;20050;-63
2022/10/22 00:59:57;;;;;;;1.20;1.10;;;;;;;3.28;74.77;97342.31;5116238;28;20083;-63
2022/10/22 01:02:25;;;;;;;2.05;1.65;;;;;;;3.29;74.41;97349.25;5116364;28;20439;-67
2022/10/22 01:04:52;;;;;;;2.85;1.80;;;;;;;3.31;74.40;97341.50;5116153;28;20112;-65
2022/10/22 01:07:22;;;;;;;2.65;1.88;;;;;;;3.31;73.98;97336.31;5115955;28;20047;-66
2022/10/22 01:10:03;;;;;;;2.40;1.73;;;;;;;3.26;74.00;97337.19;5116143;28;20621;-64
2022/10/22 01:12:43;;;;;;;2.65;1.75;;;;;;;3.21;74.23;97331.09;5115935;28;20050;-66
2022/10/22 01:15:19;;;;;;;3.28;2.03;;;;;;;3.19;74.38;97324.22;5116059;28;20116;-65
2022/10/22 01:17:55;;;;;;;1.85;1.65;;;;;;;3.13;74.30;97328.47;5115903;28;20064;-64
2022/10/22 01:20:47;;;;;;;3.13;2.10;;;;;;;3.10;74.90;97327.63;5115568;28;20083;-61
2022/10/22 01:23:29;;;;;;;4.95;1.63;;;;;;;3.05;74.65;97335.34;5115718;28;20476;-66
2022/10/22 01:26:05;;;;;;;5.32;1.90;;;;;;;3.05;74.39;97327.59;5115660;28;20553;-62
2022/10/22 01:28:54;;;;;;;2.50;1.80;;;;;;;3.06;74.34;97320.69;5115688;27;20134;-68
2022/10/22 01:31:23;;;;;;;3.67;2.10;;;;;;;3.05;74.42;97314.66;5115677;28;20385;-67
2022/10/22 01:33:54;;;;;;;4.43;1.85;;;;;;;3.03;74.40;97322.41;5115665;28;20453;-67
2022/10/22 01:36:22;;;;;;;3.78;1.77;;;;;;;2.97;74.64;97316.34;5115069;28;20054;-66
2022/10/22 01:38:51;;;;;;;4.95;2.00;;;;;;;2.99;74.55;97317.22;5115590;28;20116;-65
2022/10/22 01:41:19;;;;;;;1.58;1.48;;;;;;;3.00;73.74;97308.59;5115666;28;20069;-65
2022/10/22 01:43:47;;;;;;;1.95;1.75;;;;;;;2.98;74.13;97310.31;5115361;28;20131;-66
2022/10/22 01:46:17;;;;;;;2.28;1.80;;;;;;;2.94;73.86;97299.09;5115282;28;20054;-63
2022/10/22 01:49:00;;;;;;;5.53;1.60;;;;;;;2.90;73.90;97308.56;5115234;28;20079;-62
2022/10/22 01:51:40;;;;;;;2.72;1.83;;;;;;;2.90;73.41;97306.00;5115158;28;20090;-62
2022/10/22 01:54:21;;;;;;;1.70;1.27;;;;;;;2.84;74.10;97297.31;5115169;28;20047;-67
2022/10/22 01:56:58;;;;;;;4.65;1.75;;;;;;;2.83;74.30;97306.78;5115117;28;20100;-69
2022/10/22 01:59:36;;;;;;;2.17;1.60;;;;;;;2.82;74.34;97309.38;5115195;28;20477;-65
2022/10/22 02:02:10;;;;;;;2.50;1.75;;;;;;;2.78;75.04;97311.09;5115401;28;20044;-62
2022/10/22 02:04:45;;;;;;;3.22;1.83;;;;;;;2.80;75.26;97309.34;5114987;28;20047;-64
2022/10/22 02:07:15;;;;;;;4.72;2.08;;;;;;;2.81;75.19;97302.47;5114785;28;20105;-64
2022/10/22 02:09:44;;;;;;;3.25;1.80;;;;;;;2.83;75.49;97306.78;5114842;28;20047;-61
2022/10/22 02:12:14;;;;;;;3.00;1.70;;;;;;;2.85;75.24;97299.03;5114746;28;20138;-63
2022/10/22 02:14:44;;;;;;;3.65;1.58;;;;;;;2.86;74.54;97311.97;5114868;28;20079;-60
2022/10/22 02:17:17;;;;;;;2.28;1.73;;;;;;;2.85;74.11;97311.97;5114779;28;20082;-64
2022/10/22 02:19:51;;;;;;;1.60;1.40;;;;;;;2.83;74.26;97308.53;5114383;28;20082;-67
2022/10/22 02:22:19;;;;;;;1.58;1.48;;;;;;;2.80;74.03;97316.25;5114578;28;20489;-63
2022/10/22 02:24:46;;;;;;;3.67;1.80;;;;;;;2.74;74.94;97312.78;5114511;28;20043;-69
2022/10/22 02:27:22;;;;;;;3.92;1.98;;;;;;;2.76;75.98;97316.25;5114522;28;20055;-66
2022/10/22 02:29:58;;;;;;;3.00;1.90;;;;;;;2.71;76.62;97314.50;5114532;28;20097;-64
2022/10/22 02:32:32;;;;;;;1.73;1.60;;;;;;;2.69;75.57;97314.47;5114596;28;20117;-62
2022/10/22 02:35:01;;;;;;;2.65;1.75;;;;;;;2.71;75.51;97315.34;5114377;28;20097;-66
2022/10/22 02:37:29;;;;;;;2.88;2.17;;;;;;;2.69;75.21;97309.31;5114390;28;20108;-66
2022/10/22 02:39:56;;;;;;;1.73;1.60;;;;;;;2.70;75.07;97316.19;5114594;28;20048;-67
2022/10/22 02:42:25;;;;;;;3.40;1.73;;;;;;;2.70;73.77;97315.31;5114268;28;20482;-67
2022/10/22 02:44:54;;;;;;;2.55;1.50;;;;;;;2.67;73.82;97317.94;5114300;28;20458;-64
2022/10/22 02:47:21;;;;;;;1.98;1.33;;;;;;;2.64;74.58;97314.44;5113995;28;20122;-63
2022/10/22 02:49:48;;;;;;;2.67;1.55;;;;;;;2.67;74.64;97317.94;5113461;28;20127;-64
2022/10/22 02:52:15;;;;;;;2.05;1.80;;;;;;;2.63;75.12;97323.06;5114157;28;20058;-66
2022/10/22 02:54:42;;;;;;;2.03;1.65;;;;;;;2.61;75.82;97321.31;5114005;28;20051;-64
2022/10/22 02:57:09;;;;;;;6.80;2.08;;;;;;;2.52;76.38;97317.81;5114092;28;20040;-64
2022/10/22 02:59:36;;;;;;;3.30;1.85;;;;;;;2.50;76.81;97323.84;5113886;28;20480;-63
2022/10/22 03:02:05;;;;;;;1.80;1.48;;;;;;;2.54;76.88;97315.25;5114042;28;20047;-61
2022/10/22 03:04:32;;;;;;;1.65;1.42;;;;;;;2.56;76.26;97317.84;5113883;28;20101;-67
2022/10/22 03:06:59;;;;;;;2.33;1.60;;;;;;;2.56;76.06;97307.50;5113989;28;20043;-65
2022/10/22 03:09:26;;;;;;;2.53;1.75;;;;;;;2.59;75.43;97315.28;5113688;28;20052;-66
2022/10/22 03:11:53;;;;;;;2.28;1.73;;;;;;;2.59;75.68;97317.88;5113903;28;20382;-66
2022/10/22 03:14:21;;;;;;;2.00;1.23;;;;;;;2.61;75.44;97311.84;5113648;28;20044;-68
2022/10/22 03:16:48;;;;;;;1.73;1.45;;;;;;;2.62;74.50;97310.97;5113775;28;20062;-63
2022/10/22 03:19:17;;;;;;;2.97;1.77;;;;;;;2.60;74.70;97304.97;5113743;28;20075;-67
2022/10/22 03:21:48;;;;;;;3.17;1.70;;;;;;;2.61;74.63;97310.97;5113598;28;20044;-67
2022/10/22 03:24:18;;;;;;;5.47;1.80;;;;;;;2.61;75.06;97309.25;5113785;28;20497;-66
2022/10/22 03:26:47;;;;;;;2.40;1.88;;;;;;;2.62;75.38;97312.72;5113504;28;20050;-67
2022/10/22 03:29:15;;;;;;;2.60;1.75;;;;;;;2.63;74.81;97304.97;5113774;28;20138;-65
2022/10/22 03:31:43;;;;;;;5.00;1.55;;;;;;;2.62;74.64;97305.81;5113552;28;20122;-65
2022/10/22 03:34:10;;;;;;;1.77;1.42;;;;;;;2.65;74.83;97307.56;5113572;28;20489;-65
2022/10/22 03:36:40;;;;;;;1.73;1.60;;;;;;;2.66;74.91;97306.72;5113515;28;20047;-68
2022/10/22 03:39:09;;;;;;;6.35;1.50;;;;;;;2.68;75.36;97306.72;5113477;28;20047;-63
2022/10/22 03:41:37;;;;;;;2.45;1.77;;;;;;;2.70;75.25;97294.66;5113593;28;20499;-67
2022/10/22 03:44:05;;;;;;;2.20;1.70;;;;;;;2.67;75.06;97290.34;5113456;28;20436;-66
2022/10/22 03:46:32;;;;;;;2.55;1.75;;;;;;;2.60;75.10;97292.03;5113403;28;20066;-61
2022/10/22 03:48:59;;;;;;;2.47;1.60;;;;;;;2.57;75.17;97293.72;5113352;28;20055;-65
2022/10/22 03:51:28;;;;;;;1.70;1.40;;;;;;;2.58;75.45;97285.13;5113305;28;20489;-67
2022/10/22 03:53:56;;;;;;;2.92;1.80;;;;;;;2.58;75.41;97285.13;5113394;28;20108;-67
2022/10/22 03:56:24;;;;;;;1.73;1.50;;;;;;;2.60;74.97;97288.59;5113337;28;20105;-65
2022/10/22 03:58:51;;;;;;;2.38;1.70;;;;;;;2.61;74.75;97290.31;5113355;28;20497;-65
2022/10/22 04:01:18;;;;;;;5.47;1.60;;;;;;;2.61;74.65;97286.00;5116741;28;20044;-64
2022/10/22 04:03:45;;;;;;;2.47;1.52;;;;;;;2.60;74.21;97288.59;5117335;28;20558;-66
2022/10/22 04:06:13;;;;;;;1.58;1.42;;;;;;;2.59;74.74;97294.63;5117270;28;20051;-63
2022/10/22 04:08:42;;;;;;;1.88;1.35;;;;;;;2.62;75.11;97285.16;5117097;28;20081;-66
2022/10/22 04:11:12;;;;;;;1.52;1.40;;;;;;;2.59;75.05;97289.44;5117657;28;20043;-62
2022/10/22 04:13:39;;;;;;;2.42;1.35;;;;;;;2.59;74.59;97279.13;5117261;28;20051;-66
2022/10/22 04:16:08;;;;;;;2.85;2.08;;;;;;;2.55;74.48;97283.38;5117072;27;20044;-65
2022/10/22 04:18:35;;;;;;;2.88;1.92;;;;;;;2.55;74.56;97275.63;5117098;28;20048;-68
2022/10/22 04:21:02;;;;;;;1.67;1.48;;;;;;;2.47;74.39;97274.75;5116904;28;20052;-63
2022/10/22 04:23:30;;;;;;;3.35;1.40;;;;;;;2.33;75.68;97275.53;5117285;28;20048;-66
2022/10/22 04:25:59;;;;;;;1.63;1.52;;;;;;;2.33;77.24;97280.69;5116996;27;20043;-66
2022/10/22 04:28:27;;;;;;;4.32;1.80;;;;;;;2.31;76.21;97282.38;5116683;28;20138;-67
2022/10/22 04:30:55;;;;;;;1.98;1.70;;;;;;;2.34;76.17;97281.53;5116877;27;20047;-67
2022/10/22 04:33:23;;;;;;;3.85;1.55;;;;;;;2.32;76.28;97272.91;5116801;28;20548;-65
2022/10/22 04:35:50;;;;;;;2.75;2.05;;;;;;;2.32;76.36;97275.50;5116728;28;20040;-64
2022/10/22 04:38:18;;;;;;;2.38;2.08;;;;;;;2.37;76.20;97281.56;5116602;28;20134;-62
2022/10/22 04:40:45;;;;;;;1.77;1.55;;;;;;;2.36;76.53;97283.28;5116712;28;20459;-64
2022/10/22 04:43:12;;;;;;;2.50;2.15;;;;;;;2.39;76.26;97280.72;5116524;28;20051;-64
2022/10/22 04:45:41;;;;;;;2.42;1.95;;;;;;;2.42;76.24;97282.47;5116568;28;20386;-64
2022/10/22 04:48:10;;;;;;;3.33;1.85;;;;;;;2.46;76.39;97280.75;5116623;28;20092;-68
2022/10/22 04:50:38;;;;;;;6.22;2.13;;;;;;;2.50;77.12;97280.78;5116459;28;20063;-63
2022/10/22 04:53:05;;;;;;;3.97;2.10;;;;;;;2.58;77.46;97285.13;5116472;27;20070;-66
2022/10/22 04:55:32;;;;;;;6.72;2.40;;;;;;;2.64;77.13;97283.44;5116311;28;20126;-63
2022/10/22 04:58:02;;;;;;;3.63;2.05;;;;;;;2.73;76.60;97279.16;5116300;28;20097;-60
2022/10/22 05:00:30;;;;;;;3.17;2.13;;;;;;;2.79;76.17;97286.97;5116262;28;20054;-65
2022/10/22 05:02:58;;;;;;;2.85;2.03;;;;;;;2.83;75.38;97283.53;5116208;28;20040;-61
2022/10/22 05:05:26;;;;;;;2.97;2.08;;;;;;;2.92;75.44;97284.44;5116077;28;20047;-63
2022/10/22 05:07:53;;;;;;;2.50;1.90;;;;;;;2.99;74.86;97286.19;5116014;28;20048;-67
2022/10/22 05:10:20;;;;;;;2.50;2.10;;;;;;;3.08;75.05;97285.38;5116220;27;20039;-67
2022/10/22 05:12:47;;;;;;;2.90;1.65;;;;;;;3.17;74.54;97280.25;5115038;28;20043;-64
2022/10/22 05:15:14;;;;;;;4.10;1.92;;;;;;;3.27;73.96;97283.69;5116205;27;20051;-67
2022/10/22 05:17:41;;;;;;;3.58;1.90;;;;;;;3.39;73.93;97280.28;5115837;28;20044;-67
2022/10/22 05:20:11;;;;;;;5.35;2.00;;;;;;;3.92;73.86;97281.22;5115612;28;20101;-60
2022/10/22 05:22:38;;;;;;;2.17;1.30;;;;;;;4.82;71.88;97279.41;5115951;28;20048;-62
2022/10/22 05:25:06;;;;;;;2.47;1.90;;;;;;;5.81;67.67;97288.41;5115901;28;20074;-64
2022/10/22 05:27:34;;;;;;;3.03;2.03;;;;;;;6.69;64.00;97290.31;5115868;28;20039;-67
2022/10/22 05:30:01;;;;;;;2.28;1.52;;;;;;;7.55;61.45;97287.53;5115459;28;20054;-64
2022/10/22 05:32:29;;;;;;;4.78;1.92;;;;;;;8.33;59.50;97270.69;5115572;28;20044;-69
2022/10/22 05:34:56;;;;;;;1.75;1.63;;;;;;;9.19;56.70;97271.75;5115714;28;20048;-66
2022/10/22 05:37:25;;;;;;;2.53;1.50;;;;;;;9.98;55.66;97263.03;5115596;28;20051;-62
2022/10/22 05:39:52;;;;;;;1.30;1.20;;;;;;;10.92;53.71;97281.59;5115500;28;20043;-63
2022/10/22 05:42:19;;;;;;;3.17;1.73;;;;;;;11.68;51.11;97278.56;5115476;27;20553;-63
2022/10/22 05:44:46;;;;;;;4.22;1.80;;;;;;;12.36;48.64;97278.19;5115520;28;20120;-67
2022/10/22 05:47:13;;;;;;;1.77;1.55;;;;;;;12.91;47.22;97281.59;5115423;28;20040;-67
2022/10/22 05:49:40;;;;;;;2.83;1.50;;;;;;;13.65;46.82;97283.28;5115210;28;20079;-61
2022/10/22 05:52:08;;;;;;;1.42;1.33;;;;;;;14.40;44.88;97288.22;5115231;28;20508;-65
2022/10/22 05:54:36;;;;;;;2.20;1.42;;;;;;;15.10;42.67;97284.41;5115116;27;20127;-68
2022/10/22 05:57:04;;;;;;;1.40;1.30;;;;;;;15.72;41.03;97278.97;5115033;28;20082;-62
2022/10/22 05:59:31;;;;;;;1.38;1.27;;;;;;;16.39;39.94;97280.22;5115045;28;20043;-67
2022/10/22 06:01:58;;;;;;;1.77;1.40;;;;;;;17.04;38.67;97287.47;5115094;28;20063;-69
2022/10/22 06:04:25;;;;;;;1.60;1.10;;;;;;;17.53;37.47;97291.13;5114912;28;20075;-66
2022/10/22 06:06:54;;;;;;;7.07;1.80;;;;;;;18.03;36.79;97277.78;5114855;28;20082;-66
2022/10/22 06:09:25;;;;;;;1.58;1.23;;;;;;;18.58;36.19;97282.66;5114808;28;20130;-67
2022/10/22 06:11:54;;;;;;;1.70;1.50;;;;;;;18.94;35.40;97283.22;5114787;28;20076;-64
2022/10/22 06:14:22;;;;;;;2.33;1.50;;;;;;;19.11;34.71;97290.16;5114854;27;20051;-65
2022/10/22 06:16:50;;;;;;;2.90;1.65;;;;;;;19.59;34.46;97282.88;5114597;28;20101;-65
2022/10/22 06:19:20;;;;;;;1.83;1.60;;;;;;;20.07;34.30;97286.00;5114808;28;20083;-62
2022/10/22 06:21:47;;;;;;;2.03;1.55;;;;;;;20.79;33.35;97278.66;5114568;28;20043;-66
2022/10/22 06:24:16;;;;;;;1.95;1.50;;;;;;;21.37;32.44;97279.22;5114554;28;20501;-62
2022/10/22 06:26:43;;;;;;;2.05;1.58;;;;;;;21.77;31.60;97279.06;5114612;28;20105;-63
2022/10/22 06:29:12;;;;;;;2.00;1.50;;;;;;;22.29;30.56;97281.50;5114465;28;20463;-63
2022/10/22 06:31:40;;;;;;;2.38;1.55;;;;;;;22.80;29.90;97286.69;5114459;28;20087;-64
2022/10/22 06:34:11;;;;;;;2.17;1.77;;;;;;;23.27;29.11;97289.28;5114438;28;20048;-65
2022/10/22 06:36:39;;;;;;;3.03;1.85;;;;;;;23.63;28.80;97291.88;5114370;28;20073;-69
2022/10/22 06:39:07;;;;;;;3.13;1.90;;;;;;;23.97;28.13;97283.81;5114219;28;20048;-63
2022/10/22 06:41:34;;;;;;;2.88;1.88;;;;;;;24.17;28.13;97284.03;5114268;28;20071;-67
2022/10/22 06:44:03;;;;;;;2.20;2.00;;;;;;;24.58;27.52;97294.94;5114340;28;20100;-65
2022/10/22 06:46:32;;;;;;;3.65;2.25;;;;;;;24.90;27.33;97287.03;5114233;28;20447;-64
2022/10/22 06:49:01;;;;;;;2.63;1.77;;;;;;;25.51;26.41;97290.72;5113874;28;20497;-64
2022/10/22 06:51:29;;;;;;;2.30;2.10;;;;;;;25.87;25.68;97290.31;5114191;28;20481;-60
2022/10/22 06:53:58;;;;;;;3.47;1.90;;;;;;;26.20;25.28;97295.44;5113987;28;20052;-66
2022/10/22 06:56:28;;;;;;;7.97;1.92;;;;;;;26.51;24.81;97295.34;5114255;28;20053;-66
2022/10/22 06:58:57;;;;;;;2.53;1.73;;;;;;;27.02;24.04;97297.03;5114092;28;20476;-66
2022/10/22 07:01:29;;;;;;;3.20;1.77;;;;;;;27.18;23.82;97299.13;5114021;28;20123;-66
2022/10/22 07:03:58;;;;;;;2.13;1.80;;;;;;;27.53;23.38;97294.03;5113922;28;20050;-69
2022/10/22 07:06:27;;;;;;;2.53;1.80;;;;;;;27.69;23.60;97302.34;5114013;28;20086;-61
2022/10/22 07:08:55;;;;;;;2.22;1.70;;;;;;;27.54;23.51;97288.50;5114126;28;20043;-65
2022/10/22 07:11:25;;;;;;;1.75;1.65;;;;;;;26.70;23.92;97285.59;5113847;28;20130;-67
2022/10/22 07:13:54;;;;;;;1.65;1.40;;;;;;;26.06;25.00;97277.91;5113887;28;20522;-61
2022/10/22 07:16:21;;;;;;;4.22;2.03;;;;;;;25.91;25.40;97278.31;5113670;27;20493;-66
2022/10/22 07:18:49;;;;;;;2.53;1.75;;;;;;;26.49;24.88;97274.03;5113671;28;20105;-65
2022/10/22 07:21:21;;;;;;;3.40;1.40;;;;;;;26.91;24.13;97274.69;5113369;28;20048;-63
2022/10/22 07:23:49;;;;;;;2.33;1.73;;;;;;;27.04;23.75;97271.75;5113603;28;20048;-64
2022/10/22 07:26:19;;;;;;;5.13;1.80;;;;;;;27.23;23.86;97278.03;5113497;28;20051;-62
2022/10/22 07:28:47;;;;;;;1.60;1.50;;;;;;;27.42;23.50;97270.91;5113563;28;20039;-65
2022/10/22 07:31:16;;;;;;;2.45;1.63;;;;;;;27.45;23.41;97271.44;5113558;28;20554;-65
2022/10/22 07:33:44;;;;;;;1.90;1.33;;;;;;;27.27;23.51;97260.63;5113836;28;20043;-63
2022/10/22 07:36:16;;;;;;;2.70;1.67;;;;;;;26.50;24.54;97258.78;5113043;28;20043;-63
2022/10/22 07:38:45;;;;;;;5.43;1.95;;;;;;;25.35;25.88;97264.44;5113490;28;20104;-63
2022/10/22 07:41:13;;;;;;;3.33;1.75;;;;;;;24.11;27.14;97265.81;5113434;28;20040;-62
2022/10/22 07:43:40;;;;;;;2.92;1.92;;;;;;;22.90;29.07;97269.00;5113402;28;20075;-68
2022/10/22 07:46:08;;;;;;;2.42;1.90;;;;;;;22.03;30.66;97270.13;5113472;28;20051;-63
2022/10/22 07:48:35;;;;;;;1.80;1.65;;;;;;;21.46;31.89;97270.56;5113324;28;20055;-65
2022/10/22 07:51:04;;;;;;;2.17;1.70;;;;;;;21.16;32.72;97277.09;5113540;28;20051;-62
2022/10/22 07:53:31;;;;;;;3.42;2.00;;;;;;;21.05;33.21;97272.53;5113259;28;20087;-62
2022/10/22 07:56:00;;;;;;;4.30;2.13;;;;;;;20.94;33.45;97254.63;5113493;28;20048;-63
2022/10/22 07:58:27;;;;;;;2.78;1.92;;;;;;;20.56;33.98;97251.81;5113557;28;20378;-65
2022/10/22 08:00:57;;;;;;;3.92;2.30;;;;;;;20.00;35.26;97255.47;5113269;28;20051;-61
2022/10/22 08:03:24;;;;;;;2.47;1.92;;;;;;;19.79;35.96;97258.56;5113264;28;20101;-66
2022/10/22 08:05:52;;;;;;;5.45;2.30;;;;;;;19.82;35.89;97258.38;5113276;28;20097;-63
2022/10/22 08:08:20;;;;;;;3.35;2.25;;;;;;;19.58;36.28;97258.13;5113188;28;20079;-60
2022/10/22 08:10:48;;;;;;;2.42;2.22;;;;;;;19.46;37.09;97265.06;5113048;28;20044;-62
2022/10/22 08:13:17;;;;;;;6.78;2.65;;;;;;;19.51;36.32;97267.44;5113392;28;20093;-64
2022/10/22 08:15:46;;;;;;;4.03;2.80;;;;;;;19.29;36.51;97260.78;5113404;28;20163;-63
2022/10/22 08:18:13;;;;;;;7.40;2.67;;;;;;;19.15;36.49;97259.84;5113170;28;20122;-63
2022/10/22 08:20:41;;;;;;;6.05;2.97;;;;;;;19.29;36.02;97268.75;5112896;28;20079;-64
2022/10/22 08:23:09;;;;;;;6.35;2.22;;;;;;;19.52;36.23;97271.78;5113085;28;20044;-62
2022/10/22 08:25:36;;;;;;;6.50;2.28;;;;;;;19.59;35.94;97265.13;5113247;28;20044;-65
2022/10/22 08:28:04;;;;;;;3.85;2.53;;;;;;;19.80;35.74;97256.75;5113263;28;20396;-62
2022/10/22 08:30:32;;;;;;;3.30;2.40;;;;;;;19.77;35.55;97256.94;5113280;28;20081;-65
2022/10/22 08:33:00;;;;;;;6.72;2.65;;;;;;;19.73;35.39;97242.16;5113361;28;20052;-61
2022/10/22 08:35:27;;;;;;;7.78;2.30;;;;;;;19.37;36.01;97253.22;5113006;28;20126;-62
2022/10/22 08:37:55;;;;;;;5.68;2.45;;;;;;;19.09;36.51;97260.25;5113197;28;20069;-66
2022/10/22 08:40:29;;;;;;;3.53;2.30;;;;;;;18.88;37.53;97257.94;5112872;28;20075;-63
2022/10/22 08:43:30;;;;;;;3.40;2.45;;;;;;;18.65;37.43;97256.66;5112871;28;20139;-60
2022/10/22 08:46:12;;;;;;;4.97;2.67;;;;;;;18.50;36.95;97251.34;5107107;28;20048;-63
2022/10/22 08:48:46;;;;;;;5.20;2.42;;;;;;;18.49;38.93;97249.63;5116561;28;20079;-65
2022/10/22 08:51:16;;;;;;;3.83;2.53;;;;;;;18.63;38.60;97248.78;5116413;28;20386;-66
2022/10/22 08:53:51;;;;;;;;;;;;;;;18.70;37.65;97251.94;5116909;28;20546;-65
2022/10/22 08:56:18;;;;;;;4.03;2.55;;;;;;;18.51;38.06;97254.84;5116395;28;20277;-66
2022/10/22 08:58:53;;;;;;;4.40;2.17;;;;;;;18.58;37.95;97244.72;5116328;28;20126;-62
2022/10/22 09:01:29;;;;;;;7.05;2.53;;;;;;;18.64;38.44;97241.72;5116451;28;20130;-63
2022/10/22 09:04:01;;;;;;;3.88;2.63;;;;;;;18.93;38.57;97244.38;5116328;28;20460;-65
2022/10/22 09:06:31;;;;;;;5.50;2.58;;;;;;;18.94;37.54;97244.28;5116081;27;20044;-62
2022/10/22 09:09:00;;;;;;;6.85;2.80;;;;;;;19.14;37.80;97247.56;5116128;28;20056;-62
2022/10/22 09:11:31;;;;;;;3.08;2.13;;;;;;;19.31;35.89;97246.50;5115888;28;20050;-66
2022/10/22 09:13:59;;;;;;;2.63;2.00;;;;;;;18.98;35.34;97246.75;5115965;28;20048;-64
2022/10/22 09:16:37;;;;;;;3.58;2.40;;;;;;;18.92;36.98;97245.34;5115980;28;20100;-67
2022/10/22 09:19:17;;;;;;;4.22;2.63;;;;;;;18.84;37.11;97240.50;5116087;28;20047;-67
2022/10/22 09:21:55;;;;;;;4.82;2.40;;;;;;;18.84;37.70;97240.50;5115649;28;20056;-63
2022/10/22 09:24:32;;;;;;;3.47;2.65;;;;;;;18.91;36.71;97241.00;5115839;28;20515;-62
2022/10/22 09:27:00;;;;;;;4.40;2.50;;;;;;;18.87;37.80;97239.47;5116043;28;20081;-69
2022/10/22 09:29:34;;;;;;;2.63;2.05;;;;;;;18.86;37.12;97233.31;5115610;28;20117;-64
2022/10/22 09:32:03;;;;;;;3.03;2.05;;;;;;;18.89;37.51;97232.28;5115705;27;20108;-64
2022/10/22 09:34:31;;;;;;;4.20;2.22;;;;;;;19.03;37.45;97231.44;5116004;28;20051;-64
2022/10/22 09:36:59;;;;;;;2.88;2.10;;;;;;;19.15;37.05;97224.56;5115767;28;20451;-65
2022/10/22 09:39:29;;;;;;;4.75;2.10;;;;;;;19.31;37.57;97227.94;5115570;28;20043;-65
2022/10/22 09:41:56;;;;;;;3.05;2.28;;;;;;;19.56;36.50;97228.19;5115499;28;20126;-63
2022/10/22 09:44:23;;;;;;;6.93;2.53;;;;;;;19.75;35.18;97217.22;5115549;28;20052;-65
2022/10/22 09:46:50;;;;;;;3.78;2.50;;;;;;;19.92;35.11;97218.78;5115354;28;20044;-66
2022/10/22 09:49:21;;;;;;;4.32;2.83;;;;;;;19.97;36.13;97213.19;5115326;28;20101;-64
2022/10/22 09:51:52;;;;;;;6.97;2.95;;;;;;;20.17;35.05;97213.72;5115466;28;20097;-66
2022/10/22 09:54:22;;;;;;;3.80;2.30;;;;;;;20.27;35.13;97205.97;5115290;28;20140;-62
2022/10/22 09:56:55;;;;;;;5.28;2.70;;;;;;;20.15;34.41;97200.53;5115146;28;20047;-60
2022/10/22 09:59:29;;;;;;;4.30;2.53;;;;;;;20.23;35.38;97204.47;5114975;28;20507;-64
2022/10/22 10:02:02;;;;;;;4.07;2.72;;;;;;;19.88;33.97;97192.53;5115088;28;20096;-65
2022/10/22 10:04:36;;;;;;;7.90;2.95;;;;;;;19.89;36.08;97184.47;5115140;28;20047;-64
2022/10/22 10:07:04;;;;;;;5.22;3.13;;;;;;;19.78;36.46;97179.03;5114969;27;20043;-63
2022/10/22 10:09:35;;;;;;;4.32;2.83;;;;;;;19.50;37.05;97179.03;5114933;28;20050;-65
2022/10/22 10:12:14;;;;;;;4.82;3.20;;;;;;;19.50;36.22;97179.03;5114891;28;20043;-63
2022/10/22 10:14:48;;;;;;;3.47;2.83;;;;;;;19.37;36.35;97173.66;5115214;28;20134;-65
2022/10/22 10:17:24;;;;;;;5.38;3.05;;;;;;;19.18;36.95;97164.22;5114751;28;20054;-66
2022/10/22 10:20:01;;;;;;;5.53;3.30;;;;;;;18.71;37.40;97165.34;5114657;28;20386;-59
2022/10/22 10:22:42;;;;;;;6.90;3.63;;;;;;;18.57;38.99;97167.03;5114674;28;20078;-62
2022/10/22 10:25:31;;;;;;;5.28;3.13;;;;;;;18.69;37.92;97170.72;5114877;28;20192;-64
2022/10/22 10:28:07;;;;;;;8.13;3.65;;;;;;;18.77;37.72;97164.97;5114647;28;20048;-64
2022/10/22 10:30:44;;;;;;;5.00;3.35;;;;;;;18.80;38.48;97168.28;5114559;28;20136;-62
2022/10/22 10:33:23;;;;;;;4.45;3.72;;;;;;;18.89;37.18;97160.72;5114522;28;20131;-60
2022/10/22 10:35:58;;;;;;;4.45;3.40;;;;;;;19.00;38.22;97146.78;5114621;28;20541;-65
2022/10/22 10:38:39;;;;;;;10.30;3.58;;;;;;;19.19;38.01;97144.72;5114290;28;20044;-63
2022/10/22 10:41:16;;;;;;;5.85;3.05;;;;;;;19.38;37.34;97138.22;5114454;28;20040;-68
2022/10/22 10:44:04;;;;;;;6.70;3.35;;;;;;;19.70;36.35;97127.31;5114282;28;20050;-67
2022/10/22 10:46:39;;;;;;;4.00;2.95;;;;;;;20.02;35.60;97130.63;5114303;28;20051;-67
2022/10/22 10:49:10;;;;;;;3.78;3.25;;;;;;;20.07;34.99;97131.13;5114159;28;20043;-63
2022/10/22 10:51:47;;;;;;;4.22;3.33;;;;;;;19.94;34.87;97128.44;5114167;28;20555;-65
2022/10/22 10:54:26;;;;;;;6.03;3.00;;;;;;;19.89;36.25;97131.41;5114197;28;20043;-64
2022/10/22 10:56:57;;;;;;;3.85;3.00;;;;;;;19.88;35.59;97121.75;5113961;28;20586;-65
2022/10/22 10:59:45;;;;;;;6.38;3.00;;;;;;;19.87;35.31;97114.72;5113992;28;20087;-62
2022/10/22 11:02:52;;;;;;;4.07;2.60;;;;;;;19.60;36.89;97115.63;5114020;28;20130;-64
2022/10/22 11:05:31;;;;;;;4.47;3.10;;;;;;;19.42;35.19;97117.66;5090724;28;20048;-65
2022/10/22 11:08:04;;;;;;;3.40;2.63;;;;;;;19.37;36.47;97114.44;5113985;28;20043;-65
2022/10/22 11:10:37;;;;;;;4.10;2.97;;;;;;;19.44;35.39;97099.84;5112927;28;20052;-66
2022/10/22 11:13:13;;;;;;;6.72;2.88;;;;;;;19.51;36.86;97092.34;5113816;28;20044;-65
2022/10/22 11:15:41;;;;;;;5.10;3.20;;;;;;;19.54;35.42;97089.47;5113770;28;20048;-63
2022/10/22 11:18:19;;;;;;;5.10;3.55;;;;;;;19.54;36.94;97094.78;5113776;28;20504;-64
2022/10/22 11:20:55;;;;;;;7.20;2.90;;;;;;;19.51;36.37;97090.50;5113559;28;20048;-62
2022/10/22 11:23:28;;;;;;;5.20;3.00;;;;;;;19.55;35.96;97084.09;5113632;28;20069;-66
2022/10/22 11:25:55;;;;;;;7.07;3.25;;;;;;;19.45;36.74;97086.47;5113601;28;20054;-63
2022/10/22 11:28:28;;;;;;;4.45;2.90;;;;;;;19.38;36.56;97081.69;5113598;28;20051;-61
2022/10/22 11:31:01;;;;;;;5.25;3.38;;;;;;;19.43;35.67;97085.75;5113496;28;20055;-67
2022/10/22 11:33:37;;;;;;;5.32;3.08;;;;;;;19.48;36.38;97082.78;5113490;28;20093;-68
2022/10/22 11:36:08;;;;;;;4.03;3.10;;;;;;;19.50;36.79;97082.69;5113499;28;20514;-67
2022/10/22 11:38:37;;;;;;;3.03;2.72;;;;;;;19.49;35.41;97070.34;5113528;28;20118;-62
2022/10/22 11:41:10;;;;;;;3.78;2.95;;;;;;;19.45;35.54;97059.94;5113563;28;20043;-65
2022/10/22 11:43:56;;;;;;;7.35;3.15;;;;;;;19.35;37.09;97052.72;5113515;28;20507;-64
2022/10/22 11:46:39;;;;;;;4.57;2.97;;;;;;;19.32;36.39;97048.44;5113384;28;20051;-67
2022/10/22 11:49:25;;;;;;;6.57;3.40;;;;;;;19.50;36.41;97045.53;5113417;28;20047;-64
2022/10/22 11:52:05;;;;;;;4.63;2.42;;;;;;;19.60;36.50;97041.31;5113449;28;20443;-62